createdAt,value
2023-01-13T00:00:23.771Z,9.80
2023-01-13T00:02:53.292Z,9.78
2023-01-13T00:05:21.068Z,9.70
2023-01-13T00:07:49.733Z,9.89
2023-01-13T00:10:18.181Z,9.85
2023-01-13T00:12:46.151Z,9.87
2023-01-13T00:15:14.424Z,9.79
2023-01-13T00:17:42.589Z,9.90
2023-01-13T00:20:13.030Z,9.92
2023-01-13T00:22:40.817Z,9.95
2023-01-13T00:25:09.373Z,10.07
2023-01-13T00:27:37.661Z,9.88
2023-01-13T00:30:07.336Z,9.93
2023-01-13T00:32:35.494Z,9.99
2023-01-13T00:35:03.954Z,9.93
2023-01-13T00:37:33.024Z,9.96
2023-01-13T00:40:00.846Z,9.89
2023-01-13T00:42:46.288Z,9.77
2023-01-13T00:45:14.406Z,9.95
2023-01-13T00:47:42.417Z,9.75
2023-01-13T00:50:11.993Z,9.94
2023-01-13T00:52:42.328Z,9.76
2023-01-13T00:55:10.578Z,9.89
2023-01-13T00:57:39.766Z,9.81
2023-01-13T01:00:08.825Z,9.80
2023-01-13T01:02:36.926Z,9.84
2023-01-13T01:05:05.171Z,9.77
2023-01-13T01:07:33.109Z,9.72
2023-01-13T01:10:02.773Z,9.73
2023-01-13T01:12:30.906Z,9.77
2023-01-13T01:14:59.025Z,9.67
2023-01-13T01:17:27.048Z,9.61
2023-01-13T01:19:54.964Z,9.58
2023-01-13T01:22:23.084Z,9.48
2023-01-13T01:24:51.105Z,9.38
2023-01-13T01:27:20.473Z,9.48
2023-01-13T01:29:48.462Z,9.44
2023-01-13T01:32:16.490Z,9.44
2023-01-13T01:34:44.611Z,9.43
2023-01-13T01:37:12.921Z,9.44
2023-01-13T01:39:40.957Z,9.39
2023-01-13T01:42:32.790Z,9.36
2023-01-13T01:45:03.591Z,9.27
2023-01-13T01:47:32.799Z,9.09
2023-01-13T01:50:02.512Z,9.19
2023-01-13T01:52:33.610Z,9.21
2023-01-13T01:55:03.866Z,9.09
2023-01-13T01:57:35.797Z,9.03
2023-01-13T02:00:06.104Z,8.99
2023-01-13T02:02:34.359Z,8.89
2023-01-13T02:05:02.541Z,8.76
2023-01-13T02:07:32.948Z,8.88
2023-01-13T02:10:05.102Z,8.83
2023-01-13T02:12:32.607Z,8.63
2023-01-13T02:15:03.249Z,8.71
2023-01-13T02:18:00.336Z,8.74
2023-01-13T02:20:49.835Z,8.86
2023-01-13T02:24:02.323Z,8.82
2023-01-13T02:26:47.806Z,8.77
2023-01-13T02:29:46.958Z,8.51
2023-01-13T02:32:30.176Z,8.61
2023-01-13T02:35:06.638Z,8.50
2023-01-13T02:37:38.730Z,8.44
2023-01-13T02:40:11.499Z,8.47
2023-01-13T02:43:08.343Z,8.44
2023-01-13T02:45:39.957Z,8.41
2023-01-13T02:48:09.463Z,8.37
2023-01-13T02:50:40.863Z,8.37
2023-01-13T02:53:13.261Z,8.28
2023-01-13T02:55:44.318Z,8.37
2023-01-13T02:58:15.499Z,8.28
2023-01-13T03:00:45.284Z,8.09
2023-01-13T03:03:13.353Z,8.18
2023-01-13T03:05:43.442Z,8.16
2023-01-13T03:08:32.414Z,8.10
2023-01-13T03:11:05.657Z,8.12
2023-01-13T03:13:57.308Z,8.03
2023-01-13T03:16:31.770Z,8.11
2023-01-13T03:19:10.952Z,8.25
2023-01-13T03:21:42.114Z,8.16
2023-01-13T03:24:14.081Z,8.17
2023-01-13T03:26:45.708Z,8.22
2023-01-13T03:29:18.407Z,8.26
2023-01-13T03:31:53.010Z,8.30
2023-01-13T03:34:23.064Z,8.15
2023-01-13T03:36:53.240Z,8.19
2023-01-13T03:39:23.966Z,8.41
2023-01-13T03:41:57.178Z,8.32
2023-01-13T03:44:32.904Z,8.25
2023-01-13T03:47:10.725Z,8.35
2023-01-13T03:49:42.169Z,8.25
2023-01-13T03:52:13.786Z,8.06
2023-01-13T03:54:46.838Z,8.14
2023-01-13T03:57:16.781Z,8.16
2023-01-13T03:59:47.823Z,8.15
2023-01-13T04:02:20.934Z,8.21
2023-01-13T04:04:51.280Z,8.14
2023-01-13T04:07:24.867Z,8.11
2023-01-13T04:09:54.474Z,7.98
2023-01-13T04:12:27.738Z,7.94
2023-01-13T04:14:56.536Z,8.05
2023-01-13T04:17:25.625Z,7.96
2023-01-13T04:19:53.401Z,7.93
2023-01-13T04:22:21.154Z,7.90
2023-01-13T04:24:48.736Z,7.84
2023-01-13T04:27:16.687Z,7.87
2023-01-13T04:29:44.399Z,8.02
2023-01-13T04:32:11.962Z,7.94
2023-01-13T04:34:40.989Z,8.13
2023-01-13T04:37:08.667Z,8.00
2023-01-13T04:39:36.232Z,8.02
2023-01-13T04:42:03.845Z,8.20
2023-01-13T04:44:35.169Z,8.05
2023-01-13T04:47:03.161Z,8.03
2023-01-13T04:49:31.107Z,8.02
2023-01-13T04:52:00.214Z,8.00
2023-01-13T04:54:27.987Z,7.99
2023-01-13T04:56:55.746Z,8.14
2023-01-13T04:59:23.652Z,8.15
2023-01-13T05:01:51.321Z,8.14
2023-01-13T05:04:19.186Z,8.26
2023-01-13T05:06:46.914Z,8.21
2023-01-13T05:09:16.511Z,8.14
2023-01-13T05:12:01.739Z,8.22
2023-01-13T05:14:46.773Z,8.20
2023-01-13T05:17:21.443Z,8.28
2023-01-13T05:19:49.026Z,8.17
2023-01-13T05:22:34.500Z,8.11
2023-01-13T05:25:20.720Z,8.27
2023-01-13T05:27:48.588Z,8.18
2023-01-13T05:30:16.945Z,8.20
2023-01-13T05:32:44.821Z,8.22
2023-01-13T05:35:12.454Z,8.32
2023-01-13T05:37:40.398Z,8.35
2023-01-13T05:40:29.721Z,8.20
2023-01-13T05:43:24.656Z,8.40
2023-01-13T05:45:55.434Z,8.34
2023-01-13T05:48:26.071Z,8.24
2023-01-13T05:50:54.327Z,8.34
2023-01-13T05:53:22.786Z,8.25
2023-01-13T05:55:52.355Z,8.24
2023-01-13T05:58:22.230Z,8.24
2023-01-13T06:00:50.226Z,8.21
2023-01-13T06:03:20.140Z,8.18
2023-01-13T06:05:50.529Z,8.11
2023-01-13T06:08:19.147Z,7.98
2023-01-13T06:10:47.240Z,8.24
2023-01-13T06:13:17.427Z,7.99
2023-01-13T06:15:45.350Z,8.02
2023-01-13T06:18:13.205Z,7.84
2023-01-13T06:20:40.842Z,7.84
2023-01-13T06:23:10.687Z,8.02
2023-01-13T06:25:42.765Z,7.99
2023-01-13T06:28:10.579Z,8.12
2023-01-13T06:30:42.205Z,8.03
2023-01-13T06:33:12.243Z,8.01
2023-01-13T06:35:40.756Z,8.05
2023-01-13T06:38:10.768Z,8.14
2023-01-13T06:40:38.388Z,8.21
2023-01-13T06:43:17.703Z,8.08
2023-01-13T06:45:49.733Z,8.05
2023-01-13T06:48:18.366Z,8.01
2023-01-13T06:50:46.138Z,8.04
2023-01-13T06:53:13.930Z,8.06
2023-01-13T06:55:43.815Z,8.10
2023-01-13T06:58:11.480Z,8.00
2023-01-13T07:00:39.284Z,8.10
2023-01-13T07:03:10.279Z,8.04
2023-01-13T07:05:38.373Z,8.17
2023-01-13T07:08:06.707Z,8.04
2023-01-13T07:10:35.295Z,8.14
2023-01-13T07:13:21.144Z,8.21
2023-01-13T07:15:59.437Z,8.10
2023-01-13T07:18:31.637Z,8.08
2023-01-13T07:21:00.756Z,8.03
2023-01-13T07:23:29.818Z,7.93
2023-01-13T07:25:58.024Z,7.92
2023-01-13T07:28:26.581Z,7.90
2023-01-13T07:30:54.668Z,8.06
2023-01-13T07:33:22.965Z,8.05
2023-01-13T07:35:57.891Z,8.02
2023-01-13T07:38:25.742Z,8.14
2023-01-13T07:40:53.317Z,8.06
2023-01-13T07:43:32.369Z,8.02
2023-01-13T07:46:01.158Z,8.04
2023-01-13T07:48:29.166Z,8.03
2023-01-13T07:51:01.905Z,8.14
2023-01-13T07:53:29.434Z,8.13
2023-01-13T07:55:58.194Z,8.10
2023-01-13T07:58:26.749Z,8.02
2023-01-13T08:00:55.103Z,8.20
2023-01-13T08:03:22.944Z,8.16
2023-01-13T08:05:50.859Z,8.13
2023-01-13T08:08:20.725Z,8.21
2023-01-13T08:10:48.241Z,8.17
2023-01-13T08:13:20.242Z,8.19
2023-01-13T08:15:49.494Z,8.17
2023-01-13T08:18:20.952Z,8.16
2023-01-13T08:20:49.785Z,8.20
2023-01-13T08:23:19.795Z,8.21
2023-01-13T08:25:47.593Z,8.19
2023-01-13T08:28:16.383Z,8.21
2023-01-13T08:30:44.309Z,8.20
2023-01-13T08:33:13.686Z,8.20
2023-01-13T08:35:43.435Z,8.09
2023-01-13T08:38:10.964Z,8.17
2023-01-13T08:40:40.476Z,8.26
2023-01-13T08:43:07.978Z,8.20
2023-01-13T08:45:35.999Z,8.26
2023-01-13T08:48:04.255Z,8.30
2023-01-13T08:50:32.300Z,8.28
2023-01-13T08:53:00.276Z,8.29
2023-01-13T08:55:27.972Z,8.30
2023-01-13T08:58:14.304Z,8.32
2023-01-13T09:00:43.225Z,8.41
2023-01-13T09:03:11.041Z,8.40
2023-01-13T09:05:39.064Z,8.39
2023-01-13T09:08:06.665Z,8.41
2023-01-13T09:10:35.529Z,8.46
2023-01-13T09:13:12.687Z,8.43
2023-01-13T09:15:41.906Z,8.41
2023-01-13T09:18:09.681Z,8.42
2023-01-13T09:20:37.756Z,8.44
2023-01-13T09:23:10.081Z,8.53
2023-01-13T09:25:38.580Z,8.49
2023-01-13T09:28:08.270Z,8.49
2023-01-13T09:30:36.459Z,8.52
2023-01-13T09:33:21.728Z,8.56
2023-01-13T09:35:49.534Z,8.60
2023-01-13T09:38:17.375Z,8.61
2023-01-13T09:40:44.899Z,8.58
2023-01-13T09:43:37.628Z,8.56
2023-01-13T09:46:28.716Z,8.66
2023-01-13T09:48:57.399Z,8.70
2023-01-13T09:51:29.884Z,8.75
2023-01-13T09:54:00.637Z,8.79
2023-01-13T09:56:28.534Z,8.75
2023-01-13T09:58:58.596Z,8.74
2023-01-13T10:01:31.264Z,8.77
2023-01-13T10:03:59.239Z,8.79
2023-01-13T10:06:33.417Z,8.79
2023-01-13T10:09:01.307Z,8.78
2023-01-13T10:11:48.700Z,8.78
2023-01-13T10:14:21.433Z,8.84
2023-01-13T10:16:52.398Z,8.93
2023-01-13T10:19:23.306Z,8.93
2023-01-13T10:22:18.537Z,8.94
2023-01-13T10:25:18.435Z,8.96
2023-01-13T10:27:49.871Z,9.02
2023-01-13T10:30:24.211Z,9.14
2023-01-13T10:32:56.145Z,9.19
2023-01-13T10:35:56.083Z,9.24
2023-01-13T10:38:26.111Z,9.32
2023-01-13T10:40:55.808Z,9.28
2023-01-13T10:43:24.573Z,9.31
2023-01-13T10:46:11.033Z,9.32
2023-01-13T10:48:42.407Z,9.36
2023-01-13T10:51:20.602Z,9.37
2023-01-13T10:53:53.571Z,9.42
2023-01-13T10:56:23.545Z,9.37
2023-01-13T10:58:51.691Z,9.33
2023-01-13T11:01:26.459Z,9.40
2023-01-13T11:03:55.638Z,9.32
2023-01-13T11:06:26.937Z,9.33
2023-01-13T11:08:58.157Z,9.33
2023-01-13T11:11:38.918Z,9.42
2023-01-13T11:14:27.716Z,9.45
2023-01-13T11:16:59.321Z,9.15
2023-01-13T11:19:29.257Z,9.10
2023-01-13T11:21:59.559Z,8.97
2023-01-13T11:24:34.919Z,8.79
2023-01-13T11:27:06.103Z,8.81
2023-01-13T11:29:40.792Z,8.79
2023-01-13T11:32:14.375Z,8.84
2023-01-13T11:34:43.109Z,8.85
2023-01-13T11:37:13.546Z,8.84
2023-01-13T11:39:47.323Z,8.83
2023-01-13T11:42:21.993Z,8.88
2023-01-13T11:44:55.336Z,8.91
2023-01-13T11:47:25.908Z,8.83
2023-01-13T11:49:53.967Z,8.51
2023-01-13T11:52:25.135Z,8.34
2023-01-13T11:55:06.940Z,8.13
2023-01-13T11:57:58.213Z,8.17
2023-01-13T12:00:34.487Z,8.09
2023-01-13T12:03:17.982Z,8.00
2023-01-13T12:06:03.683Z,8.08
2023-01-13T12:09:12.836Z,8.20
2023-01-13T12:12:21.122Z,8.23
2023-01-13T12:15:05.068Z,8.24
2023-01-13T12:17:36.421Z,8.28
2023-01-13T12:20:21.522Z,8.33
2023-01-13T12:22:50.972Z,8.41
2023-01-13T12:25:23.877Z,8.46
2023-01-13T12:27:57.941Z,8.45
2023-01-13T12:30:29.688Z,8.47
2023-01-13T12:33:05.874Z,8.46
2023-01-13T12:35:40.310Z,8.56
2023-01-13T12:38:13.322Z,8.61
2023-01-13T12:40:51.641Z,8.54
2023-01-13T12:43:38.284Z,8.61
2023-01-13T12:46:44.146Z,8.59
2023-01-13T12:49:26.994Z,8.56
2023-01-13T12:52:19.815Z,8.58
2023-01-13T12:55:18.686Z,8.53
2023-01-13T12:58:16.750Z,8.53
2023-01-13T13:00:59.413Z,8.52
2023-01-13T13:03:33.301Z,8.53
2023-01-13T13:06:04.979Z,8.52
2023-01-13T13:09:05.488Z,8.52
2023-01-13T13:11:58.622Z,8.60
2023-01-13T13:15:03.824Z,8.66
2023-01-13T13:17:43.253Z,8.67
2023-01-13T13:20:44.799Z,8.78
2023-01-13T13:23:31.313Z,8.91
2023-01-13T13:26:05.930Z,8.74
2023-01-13T13:28:38.416Z,8.80
2023-01-13T13:31:31.459Z,8.84
2023-01-13T13:34:13.317Z,8.92
2023-01-13T13:36:51.943Z,8.87
2023-01-13T13:39:40.209Z,8.84
2023-01-13T13:42:31.526Z,8.77
2023-01-13T13:45:22.289Z,8.51
2023-01-13T13:47:51.579Z,8.39
2023-01-13T13:50:21.703Z,8.23
2023-01-13T13:52:54.469Z,8.08
2023-01-13T13:55:24.390Z,8.11
2023-01-13T13:57:53.374Z,7.99
2023-01-13T14:00:25.942Z,7.91
2023-01-13T14:02:55.918Z,7.83
2023-01-13T14:05:25.763Z,7.78
2023-01-13T14:08:00.172Z,7.82
2023-01-13T14:10:32.157Z,7.79
2023-01-13T14:13:01.367Z,7.77
2023-01-13T14:15:33.404Z,7.74
2023-01-13T14:18:03.763Z,7.69
2023-01-13T14:20:31.436Z,7.65
2023-01-13T14:23:06.280Z,7.53
2023-01-13T14:25:39.501Z,7.50
2023-01-13T14:28:22.799Z,7.60
2023-01-13T14:30:52.420Z,7.73
2023-01-13T14:33:23.977Z,7.69
2023-01-13T14:36:14.960Z,7.57
2023-01-13T14:38:44.157Z,7.55
2023-01-13T14:41:17.254Z,7.51
2023-01-13T14:43:45.759Z,7.54
2023-01-13T14:46:17.548Z,7.60
2023-01-13T14:48:47.634Z,7.65
2023-01-13T14:51:23.922Z,7.70
2023-01-13T14:53:52.032Z,7.77
2023-01-13T14:56:40.869Z,7.80
2023-01-13T14:59:51.686Z,7.83
2023-01-13T15:03:00.689Z,7.88
2023-01-13T15:05:36.991Z,7.81
2023-01-13T15:08:10.041Z,7.75
2023-01-13T15:10:41.568Z,7.65
2023-01-13T15:13:26.321Z,7.60
2023-01-13T15:15:56.171Z,7.60
2023-01-13T15:18:25.380Z,7.59
2023-01-13T15:20:53.110Z,7.60
2023-01-13T15:23:21.357Z,7.69
2023-01-13T15:25:49.715Z,7.64
2023-01-13T15:28:20.035Z,7.64
2023-01-13T15:30:47.793Z,7.58
2023-01-13T15:33:15.945Z,7.59
2023-01-13T15:35:47.017Z,7.59
2023-01-13T15:38:17.143Z,7.53
2023-01-13T15:40:45.564Z,7.55
2023-01-13T15:43:32.598Z,7.55
2023-01-13T15:46:18.273Z,7.56
2023-01-13T15:48:46.259Z,7.60
2023-01-13T15:51:21.181Z,7.61
2023-01-13T15:53:49.206Z,7.59
2023-01-13T15:56:21.888Z,7.77
2023-01-13T15:58:49.769Z,7.65
2023-01-13T16:01:17.851Z,7.65
2023-01-13T16:03:45.858Z,7.64
2023-01-13T16:06:17.589Z,7.63
2023-01-13T16:08:46.976Z,7.67
2023-01-13T16:11:14.948Z,7.75
2023-01-13T16:13:42.683Z,7.74
2023-01-13T16:16:17.903Z,7.75
2023-01-13T16:18:45.740Z,7.94
2023-01-13T16:21:14.393Z,7.80
2023-01-13T16:23:42.502Z,7.84
2023-01-13T16:26:20.587Z,7.70
2023-01-13T16:28:48.706Z,7.80
2023-01-13T16:31:19.425Z,7.78
2023-01-13T16:33:47.245Z,7.91
2023-01-13T16:36:16.115Z,7.81
2023-01-13T16:38:44.073Z,7.78
2023-01-13T16:41:11.986Z,7.48
2023-01-13T16:43:41.393Z,7.31
2023-01-13T16:46:18.828Z,7.21
2023-01-13T16:48:47.287Z,7.10
2023-01-13T16:51:15.238Z,7.10
2023-01-13T16:53:43.199Z,7.10
2023-01-13T16:56:19.119Z,7.19
2023-01-13T16:58:49.353Z,7.27
2023-01-13T17:01:20.960Z,7.32
2023-01-13T17:03:51.429Z,7.33
2023-01-13T17:06:22.671Z,7.45
2023-01-13T17:08:50.544Z,7.45
2023-01-13T17:11:18.327Z,7.68
2023-01-13T17:13:46.061Z,7.55
2023-01-13T17:16:24.425Z,7.54
2023-01-13T17:18:52.233Z,7.63
2023-01-13T17:21:20.453Z,7.59
2023-01-13T17:23:48.898Z,7.67
2023-01-13T17:26:29.552Z,7.73
2023-01-13T17:28:57.471Z,7.93
2023-01-13T17:31:26.770Z,7.83
2023-01-13T17:33:54.795Z,7.91
2023-01-13T17:36:24.698Z,7.88
2023-01-13T17:38:52.970Z,7.94
2023-01-13T17:41:20.910Z,8.07
2023-01-13T17:43:48.707Z,8.06
2023-01-13T17:46:19.880Z,8.04
2023-01-13T17:48:49.093Z,8.03
2023-01-13T17:51:18.013Z,8.02
2023-01-13T17:53:46.348Z,8.07
2023-01-13T17:56:15.234Z,8.00
2023-01-13T17:58:45.484Z,7.86
2023-01-13T18:01:15.723Z,7.91
2023-01-13T18:03:43.765Z,8.04
2023-01-13T18:06:18.424Z,7.99
2023-01-13T18:08:46.592Z,8.03
2023-01-13T18:11:14.679Z,8.01
2023-01-13T18:13:42.879Z,7.99
2023-01-13T18:16:12.029Z,7.91
2023-01-13T18:18:40.588Z,7.86
2023-01-13T18:21:26.621Z,7.80
2023-01-13T18:24:09.426Z,7.78
2023-01-13T18:26:56.269Z,7.89
2023-01-13T18:29:24.961Z,7.90
2023-01-13T18:31:53.182Z,7.82
2023-01-13T18:34:21.941Z,7.76
2023-01-13T18:36:49.686Z,7.96
2023-01-13T18:39:19.156Z,8.03
2023-01-13T18:42:04.418Z,7.90
2023-01-13T18:44:32.497Z,7.73
2023-01-13T18:47:00.450Z,7.56
2023-01-13T18:49:28.565Z,7.60
2023-01-13T18:51:56.456Z,7.55
2023-01-13T18:54:25.767Z,7.38
2023-01-13T18:56:53.586Z,7.16
2023-01-13T18:59:21.532Z,6.93
2023-01-13T19:01:49.737Z,6.93
2023-01-13T19:04:18.463Z,6.89
2023-01-13T19:06:51.547Z,6.90
2023-01-13T19:09:20.613Z,6.89
2023-01-13T19:11:50.659Z,7.10
2023-01-13T19:14:34.125Z,6.96
2023-01-13T19:17:02.993Z,6.95
2023-01-13T19:19:31.258Z,7.00
2023-01-13T19:21:59.151Z,7.04
2023-01-13T19:24:27.169Z,6.99
2023-01-13T19:26:56.307Z,7.13
2023-01-13T19:29:24.035Z,7.02
2023-01-13T19:31:51.945Z,7.14
2023-01-13T19:34:20.006Z,7.24
2023-01-13T19:36:47.758Z,7.17
2023-01-13T19:39:15.386Z,7.10
2023-01-13T19:42:00.405Z,7.17
2023-01-13T19:44:47.525Z,6.79
2023-01-13T19:47:15.420Z,6.55
2023-01-13T19:49:43.269Z,6.56
2023-01-13T19:52:11.116Z,6.55
2023-01-13T19:54:39.284Z,6.52
2023-01-13T19:57:08.535Z,6.47
2023-01-13T19:59:40.974Z,6.27
2023-01-13T20:02:14.765Z,6.34
2023-01-13T20:04:44.961Z,6.51
2023-01-13T20:07:14.710Z,6.47
2023-01-13T20:09:43.910Z,6.54
2023-01-13T20:12:12.591Z,6.46
2023-01-13T20:14:43.389Z,6.40
2023-01-13T20:17:12.613Z,6.42
2023-01-13T20:19:40.176Z,6.25
2023-01-13T20:22:07.984Z,6.31
2023-01-13T20:24:36.266Z,6.35
2023-01-13T20:27:04.306Z,6.40
2023-01-13T20:29:32.593Z,6.38
2023-01-13T20:32:01.803Z,6.41
2023-01-13T20:34:29.678Z,6.31
2023-01-13T20:36:57.761Z,6.27
2023-01-13T20:39:26.903Z,6.28
2023-01-13T20:42:23.756Z,6.38
2023-01-13T20:44:51.660Z,6.31
2023-01-13T20:47:21.005Z,6.31
2023-01-13T20:49:48.868Z,6.24
2023-01-13T20:52:16.621Z,6.27
2023-01-13T20:54:44.497Z,6.13
2023-01-13T20:57:12.672Z,6.36
2023-01-13T20:59:41.100Z,6.37
2023-01-13T21:02:13.159Z,6.42
2023-01-13T21:04:42.174Z,6.53
2023-01-13T21:07:10.326Z,6.49
2023-01-13T21:09:38.251Z,6.64
2023-01-13T21:12:24.137Z,6.38
2023-01-13T21:15:09.620Z,6.69
2023-01-13T21:17:54.585Z,6.58
2023-01-13T21:20:23.782Z,6.51
2023-01-13T21:22:51.294Z,6.46
2023-01-13T21:25:19.513Z,6.29
2023-01-13T21:27:47.353Z,6.24
2023-01-13T21:30:17.079Z,6.39
2023-01-13T21:32:46.038Z,6.43
2023-01-13T21:35:14.901Z,6.34
2023-01-13T21:37:44.963Z,6.33
2023-01-13T21:40:14.912Z,6.57
2023-01-13T21:43:00.487Z,6.36
2023-01-13T21:45:45.667Z,6.38
2023-01-13T21:48:13.485Z,6.58
2023-01-13T21:50:42.221Z,6.50
2023-01-13T21:53:11.467Z,6.60
2023-01-13T21:55:39.445Z,6.61
2023-01-13T21:58:12.326Z,6.90
2023-01-13T22:00:41.409Z,6.98
2023-01-13T22:03:10.390Z,7.03
2023-01-13T22:05:39.052Z,6.91
2023-01-13T22:08:07.385Z,6.71
2023-01-13T22:10:36.905Z,6.67
2023-01-13T22:13:18.957Z,6.74
2023-01-13T22:15:46.702Z,6.50
2023-01-13T22:18:14.449Z,6.40
2023-01-13T22:20:42.454Z,6.31
2023-01-13T22:23:10.382Z,6.21
2023-01-13T22:25:39.746Z,6.24
2023-01-13T22:28:09.190Z,6.22
2023-01-13T22:30:37.332Z,6.28
2023-01-13T22:33:04.994Z,6.34
2023-01-13T22:35:32.751Z,6.57
2023-01-13T22:38:00.677Z,6.49
2023-01-13T22:40:28.447Z,6.61
2023-01-13T22:42:57.364Z,6.62
2023-01-13T22:45:25.162Z,6.56
2023-01-13T22:47:52.790Z,6.71
2023-01-13T22:50:22.644Z,6.67
2023-01-13T22:52:50.429Z,6.80
2023-01-13T22:55:18.389Z,6.75
2023-01-13T22:57:48.515Z,6.75
2023-01-13T23:00:19.690Z,6.71
2023-01-13T23:02:47.763Z,6.73
2023-01-13T23:05:15.454Z,6.66
2023-01-13T23:07:56.918Z,6.58
2023-01-13T23:10:24.893Z,6.50
2023-01-13T23:12:53.104Z,6.61
2023-01-13T23:15:22.414Z,6.67
2023-01-13T23:17:50.411Z,6.61
2023-01-13T23:20:19.380Z,6.52
2023-01-13T23:22:47.298Z,6.50
2023-01-13T23:25:15.269Z,6.44
2023-01-13T23:27:43.146Z,6.37
2023-01-13T23:30:11.783Z,6.20
2023-01-13T23:32:40.906Z,6.24
2023-01-13T23:35:09.117Z,6.21
2023-01-13T23:37:36.961Z,6.10
2023-01-13T23:40:05.368Z,6.06
2023-01-13T23:42:33.107Z,5.97
2023-01-13T23:45:00.915Z,6.06
2023-01-13T23:47:29.110Z,6.21
2023-01-13T23:49:58.227Z,6.05
2023-01-13T23:52:26.148Z,5.97
2023-01-13T23:54:53.935Z,6.24
2023-01-13T23:57:21.517Z,6.29
2023-01-13T23:59:49.421Z,6.36
